Thalassa — FNFP — position and weather

sailwx.info

Track history (hours):
 
Tides and Currents Weather Stations Pressure Air Temp Water Temp Dewpoint Dewpoint Depression Visibility Wind Speed Wind Dir Waves Ship Positions

Oceanographic research ship Thalassa (France & Spain)

Detailed information on ship capabilities available from University of Delaware's Ocean Information Center.

Last reported at 2020-Sep-24 02:19 UTC. Time now 2020-Sep-24 08:12 UTC.
Position N 48°48' W 004°58'.

Length 74 m; beam 15 m.

Type: Other ship. MMSI: 227297000.

Date/timePositionNaut miles runAvg speedWind from/ knotsBaromVisibWave heightAir tempDewpointWater temp
2020-Sep-24 02:19N 48°48' W 004°58'3 9.6
2020-Sep-24 02:00N 48°45' W 004°58'1 0.3
2020-Sep-23 21:30N 48°44' W 004°58'2 1.2
2020-Sep-23 20:01N 48°43' W 004°56'10 7.8
2020-Sep-23 18:45N 48°40' W 005°10'5 1.2
2020-Sep-23 14:30N 48°38' W 005°17'5 9.6
2020-Sep-23 14:00N 48°36' W 005°10'8 4.2
2020-Sep-23 12:01N 48°32' W 004°59'9 9.3
2020-Sep-23 11:00N 48°25' W 004°50'4 8.2
2020-Sep-23 10:31N 48°21' W 004°49'13 1.6
2020-Sep-23 01:58N 48°23' W 004°29'0 0.0
2020-Sep-22 22:58N 48°23' W 004°29'0 0.0
2020-Sep-22 16:28N 48°23' W 004°29'0 0.0
2020-Sep-22 15:58N 48°23' W 004°29'0 0.0
2020-Sep-22 15:28N 48°23' W 004°29'0 0.0
2020-Sep-22 11:58N 48°23' W 004°29'0 0.0
2020-Sep-22 10:58N 48°23' W 004°29'0 0.0
2020-Sep-22 09:58N 48°23' W 004°29'0 0.0
2020-Sep-22 09:28N 48°23' W 004°29'0 0.0
2020-Sep-22 07:58N 48°23' W 004°29'0 0.0
2020-Sep-22 07:28N 48°23' W 004°29'0 0.0
2020-Sep-22 06:58N 48°23' W 004°29'0 0.0
2020-Sep-22 04:58N 48°23' W 004°29'0 0.0
2020-Sep-22 03:58N 48°23' W 004°29'0 0.0
2020-Sep-22 03:28N 48°23' W 004°29'0 0.0
2020-Sep-21 22:58N 48°23' W 004°29'0 0.0
2020-Sep-21 21:58N 48°23' W 004°29'0 0.0
2020-Sep-21 21:28N 48°23' W 004°29'0 0.0
2020-Sep-21 20:28N 48°23' W 004°29'0 0.0
2020-Sep-21 17:28N 48°23' W 004°29'0 0.0
2020-Sep-21 16:01N 48°23' W 004°29'0 0.0
2020-Sep-21 14:00N 48°23' W 004°29'0 0.0
2020-Sep-21 10:30N 48°23' W 004°29'0 0.0
2020-Sep-21 08:30N 48°23' W 004°29'0 0.0
2020-Sep-21 07:30N 48°23' W 004°29'0 0.0
2020-Sep-21 05:30N 48°23' W 004°29'0 0.0
2020-Sep-21 01:30N 48°23' W 004°29'0 0.0
2020-Sep-21 00:30N 48°23' W 004°29'0 0.0
2020-Sep-20 23:30N 48°23' W 004°29'0 0.0
2020-Sep-20 19:30N 48°23' W 004°29'0 0.0
2020-Sep-20 19:00N 48°23' W 004°29'0 0.0
2020-Sep-20 18:00N 48°23' W 004°29'0 0.0
2020-Sep-20 17:30N 48°23' W 004°29'0 0.0
2020-Sep-20 17:00N 48°23' W 004°29'0 0.0
2020-Sep-20 16:30N 48°23' W 004°29'0 0.0
2020-Sep-20 16:00N 48°23' W 004°29'0 0.0
2020-Sep-20 14:30N 48°23' W 004°29'0 0.0
2020-Sep-20 12:30N 48°23' W 004°29'0 0.0
2020-Sep-20 12:00N 48°23' W 004°29'0 0.0
2020-Sep-20 11:30N 48°23' W 004°29'0 0.0
2020-Sep-20 10:30N 48°23' W 004°29'0 0.0
2020-Sep-20 08:30N 48°23' W 004°29'0 0.0
2020-Sep-20 07:00N 48°23' W 004°29'0 0.0
2020-Sep-20 06:00N 48°23' W 004°29'0 0.0
2020-Sep-20 00:00N 48°23' W 004°29'0 0.0
2020-Sep-19 20:30N 48°23' W 004°29'0 0.0
2020-Sep-19 19:00N 48°23' W 004°29'0 0.0
2020-Sep-19 17:30N 48°23' W 004°29'0 0.0
2020-Sep-19 16:30N 48°23' W 004°29'0 0.0
2020-Sep-19 14:00N 48°23' W 004°29'0 0.0
2020-Sep-19 11:00N 48°23' W 004°29'0 0.0
2020-Sep-19 10:00N 48°23' W 004°29'0 0.0
2020-Sep-19 07:30N 48°23' W 004°29'0 0.0
2020-Sep-19 07:00N 48°23' W 004°29'0 0.0
2020-Sep-19 05:00N 48°23' W 004°29'0 0.0
2020-Sep-19 04:30N 48°23' W 004°29'0 0.0
2020-Sep-19 02:30N 48°23' W 004°29'0 0.0
2020-Sep-19 01:30N 48°23' W 004°29'0 0.0
2020-Sep-18 23:30N 48°23' W 004°29'0 0.0
2020-Sep-18 22:30N 48°23' W 004°29'0 0.0
2020-Sep-18 20:00N 48°23' W 004°29'0 0.0
2020-Sep-18 19:00N 48°23' W 004°29'0 0.0
2020-Sep-18 18:00N 48°23' W 004°29'0 0.0
2020-Sep-18 15:00N 48°23' W 004°29'0 0.0
2020-Sep-18 13:30N 48°23' W 004°29'0 0.0
2020-Sep-18 10:30N 48°23' W 004°29'0 0.0
2020-Sep-18 07:30N 48°23' W 004°29'0 0.0
2020-Sep-18 07:00N 48°23' W 004°29'0 0.0
2020-Sep-18 05:00N 48°23' W 004°29'0 0.0
2020-Sep-18 03:00N 48°23' W 004°29'0 0.0
2020-Sep-18 01:30N 48°23' W 004°29'0 0.0
2020-Sep-18 01:00N 48°23' W 004°29'0 0.0
2020-Sep-17 19:30N 48°23' W 004°29'0 0.0
2020-Sep-17 17:00N 48°23' W 004°29'0 0.0
2020-Sep-17 15:30N 48°23' W 004°29'0 0.0
2020-Sep-17 14:30N 48°23' W 004°29'0 0.0
2020-Sep-17 12:00N 48°23' W 004°29'0 0.0
2020-Sep-17 08:00N 48°23' W 004°29'0 0.0
2020-Sep-17 07:30N 48°23' W 004°29'0 0.0
2020-Sep-17 07:00N 48°23' W 004°29'0 0.0
2020-Sep-17 06:30N 48°23' W 004°29'0 0.0
2020-Sep-17 03:30N 48°23' W 004°29'0 0.0
2020-Sep-17 03:00N 48°23' W 004°29'0 0.0
2020-Sep-17 01:30N 48°23' W 004°29'0 0.0
2020-Sep-17 01:00N 48°23' W 004°29'0 0.0
2020-Sep-17 00:30N 48°23' W 004°29'0 0.0
2020-Sep-17 00:00N 48°23' W 004°29'0 0.0
2020-Sep-16 20:29N 48°23' W 004°29'0 0.0
2020-Sep-16 18:29N 48°23' W 004°29'0 0.0
2020-Sep-16 17:59N 48°23' W 004°29'0 0.0
2020-Sep-16 16:59N 48°23' W 004°29'0 0.0
2020-Sep-16 16:29N 48°23' W 004°29'0 0.0
2020-Sep-16 11:59N 48°23' W 004°29'0 0.0
2020-Sep-16 06:59N 48°23' W 004°29'0 0.0
2020-Sep-16 04:59N 48°23' W 004°29'0 0.0
2020-Sep-16 04:29N 48°23' W 004°29'0 0.0
2020-Sep-16 03:59N 48°23' W 004°29'0 0.0
2020-Sep-16 02:59N 48°23' W 004°29'0 0.0
2020-Sep-15 23:59N 48°23' W 004°29'0 0.0
2020-Sep-15 23:29N 48°23' W 004°29'0 0.0
2020-Sep-15 22:29N 48°23' W 004°29'0 0.0
2020-Sep-15 20:29N 48°23' W 004°29'17 2.6
2020-Sep-15 14:00N 48°15' W 004°51'5 9.6
2020-Sep-15 13:30N 48°12' W 004°57'15 9.9
2020-Sep-15 12:00N 48°04' W 005°15'18 7.4
2020-Sep-15 09:30N 47°53' W 005°37'2 1.0
2020-Sep-15 07:27N 47°52' W 005°40'2 0.9
2020-Sep-15 05:15N 47°54' W 005°40'9 4.1
2020-Sep-15 03:00N 47°47' W 005°49'6 6.5
2020-Sep-15 02:00N 47°44' W 005°57'46 9.1
2020-Sep-14 20:59N 47°18' W 006°53'  
Track history (hours):
 
Tides and Currents Weather Stations Pressure Air Temp Water Temp Dewpoint Dewpoint Depression Visibility Wind Speed Wind Dir Waves Ship Positions

Oceanographic research ship Thalassa (France & Spain)

Detailed information on ship capabilities available from University of Delaware's Ocean Information Center.

Last reported at 2020-Sep-24 02:19 UTC. Time now 2020-Sep-24 08:12 UTC.
Position N 48°48' W 004°58'.

Length 74 m; beam 15 m.

Type: Other ship. MMSI: 227297000.

Date/timePositionNaut miles runAvg speedWind from/ knotsBaromVisibWave heightAir tempDewpointWater temp
2020-Sep-24 02:19N 48°48' W 004°58'3 9.6
2020-Sep-24 02:00N 48°45' W 004°58'1 0.3
2020-Sep-23 21:30N 48°44' W 004°58'2 1.2
2020-Sep-23 20:01N 48°43' W 004°56'10 7.8
2020-Sep-23 18:45N 48°40' W 005°10'5 1.2
2020-Sep-23 14:30N 48°38' W 005°17'5 9.6
2020-Sep-23 14:00N 48°36' W 005°10'8 4.2
2020-Sep-23 12:01N 48°32' W 004°59'9 9.3
2020-Sep-23 11:00N 48°25' W 004°50'4 8.2
2020-Sep-23 10:31N 48°21' W 004°49'13 1.6
2020-Sep-23 01:58N 48°23' W 004°29'0 0.0
2020-Sep-22 22:58N 48°23' W 004°29'0 0.0
2020-Sep-22 16:28N 48°23' W 004°29'0 0.0
2020-Sep-22 15:58N 48°23' W 004°29'0 0.0
2020-Sep-22 15:28N 48°23' W 004°29'0 0.0
2020-Sep-22 11:58N 48°23' W 004°29'0 0.0
2020-Sep-22 10:58N 48°23' W 004°29'0 0.0
2020-Sep-22 09:58N 48°23' W 004°29'0 0.0
2020-Sep-22 09:28N 48°23' W 004°29'0 0.0
2020-Sep-22 07:58N 48°23' W 004°29'0 0.0
2020-Sep-22 07:28N 48°23' W 004°29'0 0.0
2020-Sep-22 06:58N 48°23' W 004°29'0 0.0
2020-Sep-22 04:58N 48°23' W 004°29'0 0.0
2020-Sep-22 03:58N 48°23' W 004°29'0 0.0
2020-Sep-22 03:28N 48°23' W 004°29'0 0.0
2020-Sep-21 22:58N 48°23' W 004°29'0 0.0
2020-Sep-21 21:58N 48°23' W 004°29'0 0.0
2020-Sep-21 21:28N 48°23' W 004°29'0 0.0
2020-Sep-21 20:28N 48°23' W 004°29'0 0.0
2020-Sep-21 17:28N 48°23' W 004°29'0 0.0
2020-Sep-21 16:01N 48°23' W 004°29'0 0.0
2020-Sep-21 14:00N 48°23' W 004°29'0 0.0
2020-Sep-21 10:30N 48°23' W 004°29'0 0.0
2020-Sep-21 08:30N 48°23' W 004°29'0 0.0
2020-Sep-21 07:30N 48°23' W 004°29'0 0.0
2020-Sep-21 05:30N 48°23' W 004°29'0 0.0
2020-Sep-21 01:30N 48°23' W 004°29'0 0.0
2020-Sep-21 00:30N 48°23' W 004°29'0 0.0
2020-Sep-20 23:30N 48°23' W 004°29'0 0.0
2020-Sep-20 19:30N 48°23' W 004°29'0 0.0
2020-Sep-20 19:00N 48°23' W 004°29'0 0.0
2020-Sep-20 18:00N 48°23' W 004°29'0 0.0
2020-Sep-20 17:30N 48°23' W 004°29'0 0.0
2020-Sep-20 17:00N 48°23' W 004°29'0 0.0
2020-Sep-20 16:30N 48°23' W 004°29'0 0.0
2020-Sep-20 16:00N 48°23' W 004°29'0 0.0
2020-Sep-20 14:30N 48°23' W 004°29'0 0.0
2020-Sep-20 12:30N 48°23' W 004°29'0 0.0
2020-Sep-20 12:00N 48°23' W 004°29'0 0.0
2020-Sep-20 11:30N 48°23' W 004°29'0 0.0
2020-Sep-20 10:30N 48°23' W 004°29'0 0.0
2020-Sep-20 08:30N 48°23' W 004°29'0 0.0
2020-Sep-20 07:00N 48°23' W 004°29'0 0.0
2020-Sep-20 06:00N 48°23' W 004°29'0 0.0
2020-Sep-20 00:00N 48°23' W 004°29'0 0.0
2020-Sep-19 20:30N 48°23' W 004°29'0 0.0
2020-Sep-19 19:00N 48°23' W 004°29'0 0.0
2020-Sep-19 17:30N 48°23' W 004°29'0 0.0
2020-Sep-19 16:30N 48°23' W 004°29'0 0.0
2020-Sep-19 14:00N 48°23' W 004°29'0 0.0
2020-Sep-19 11:00N 48°23' W 004°29'0 0.0
2020-Sep-19 10:00N 48°23' W 004°29'0 0.0
2020-Sep-19 07:30N 48°23' W 004°29'0 0.0
2020-Sep-19 07:00N 48°23' W 004°29'0 0.0
2020-Sep-19 05:00N 48°23' W 004°29'0 0.0
2020-Sep-19 04:30N 48°23' W 004°29'0 0.0
2020-Sep-19 02:30N 48°23' W 004°29'0 0.0
2020-Sep-19 01:30N 48°23' W 004°29'0 0.0
2020-Sep-18 23:30N 48°23' W 004°29'0 0.0
2020-Sep-18 22:30N 48°23' W 004°29'0 0.0
2020-Sep-18 20:00N 48°23' W 004°29'0 0.0
2020-Sep-18 19:00N 48°23' W 004°29'0 0.0
2020-Sep-18 18:00N 48°23' W 004°29'0 0.0
2020-Sep-18 15:00N 48°23' W 004°29'0 0.0
2020-Sep-18 13:30N 48°23' W 004°29'0 0.0
2020-Sep-18 10:30N 48°23' W 004°29'0 0.0
2020-Sep-18 07:30N 48°23' W 004°29'0 0.0
2020-Sep-18 07:00N 48°23' W 004°29'0 0.0
2020-Sep-18 05:00N 48°23' W 004°29'0 0.0
2020-Sep-18 03:00N 48°23' W 004°29'0 0.0
2020-Sep-18 01:30N 48°23' W 004°29'0 0.0
2020-Sep-18 01:00N 48°23' W 004°29'0 0.0
2020-Sep-17 19:30N 48°23' W 004°29'0 0.0
2020-Sep-17 17:00N 48°23' W 004°29'0 0.0
2020-Sep-17 15:30N 48°23' W 004°29'0 0.0
2020-Sep-17 14:30N 48°23' W 004°29'0 0.0
2020-Sep-17 12:00N 48°23' W 004°29'0 0.0
2020-Sep-17 08:00N 48°23' W 004°29'0 0.0
2020-Sep-17 07:30N 48°23' W 004°29'0 0.0
2020-Sep-17 07:00N 48°23' W 004°29'0 0.0
2020-Sep-17 06:30N 48°23' W 004°29'0 0.0
2020-Sep-17 03:30N 48°23' W 004°29'0 0.0
2020-Sep-17 03:00N 48°23' W 004°29'0 0.0
2020-Sep-17 01:30N 48°23' W 004°29'0 0.0
2020-Sep-17 01:00N 48°23' W 004°29'0 0.0
2020-Sep-17 00:30N 48°23' W 004°29'0 0.0
2020-Sep-17 00:00N 48°23' W 004°29'0 0.0
2020-Sep-16 20:29N 48°23' W 004°29'0 0.0
2020-Sep-16 18:29N 48°23' W 004°29'0 0.0
2020-Sep-16 17:59N 48°23' W 004°29'0 0.0
2020-Sep-16 16:59N 48°23' W 004°29'0 0.0
2020-Sep-16 16:29N 48°23' W 004°29'0 0.0
2020-Sep-16 11:59N 48°23' W 004°29'0 0.0
2020-Sep-16 06:59N 48°23' W 004°29'0 0.0
2020-Sep-16 04:59N 48°23' W 004°29'0 0.0
2020-Sep-16 04:29N 48°23' W 004°29'0 0.0
2020-Sep-16 03:59N 48°23' W 004°29'0 0.0
2020-Sep-16 02:59N 48°23' W 004°29'0 0.0
2020-Sep-15 23:59N 48°23' W 004°29'0 0.0
2020-Sep-15 23:29N 48°23' W 004°29'0 0.0
2020-Sep-15 22:29N 48°23' W 004°29'0 0.0
2020-Sep-15 20:29N 48°23' W 004°29'17 2.6
2020-Sep-15 14:00N 48°15' W 004°51'5 9.6
2020-Sep-15 13:30N 48°12' W 004°57'15 9.9
2020-Sep-15 12:00N 48°04' W 005°15'18 7.4
2020-Sep-15 09:30N 47°53' W 005°37'2 1.0
2020-Sep-15 07:27N 47°52' W 005°40'2 0.9
2020-Sep-15 05:15N 47°54' W 005°40'9 4.1
2020-Sep-15 03:00N 47°47' W 005°49'6 6.5
2020-Sep-15 02:00N 47°44' W 005°57'46 9.1
2020-Sep-14 20:59N 47°18' W 006°53'  

Dump ship's entire track history